createdAt,value
2023-03-08T00:01:49.034Z,96862.63
2023-03-08T00:07:13.044Z,96876.84
2023-03-08T00:12:47.064Z,96890.22
2023-03-08T00:18:12.027Z,96872.41
2023-03-08T00:23:36.024Z,96883.25
2023-03-08T00:29:04.045Z,96888.56
2023-03-08T00:34:28.023Z,96881.63
2023-03-08T00:39:53.019Z,96870.22
2023-03-08T00:45:15.019Z,96872.00
2023-03-08T00:50:40.033Z,96869.25
2023-03-08T00:56:07.037Z,96869.91
2023-03-08T01:01:35.050Z,96882.47
2023-03-08T01:07:00.108Z,96892.38
2023-03-08T01:12:32.044Z,96896.69
2023-03-08T01:17:53.067Z,96912.28
2023-03-08T01:23:19.105Z,96884.84
2023-03-08T01:28:43.036Z,96888.19
2023-03-08T01:34:11.024Z,96888.03
2023-03-08T01:39:35.051Z,96895.84
2023-03-08T01:45:06.056Z,96883.84
2023-03-08T01:50:35.036Z,96886.91
2023-03-08T01:55:56.095Z,96893.19
2023-03-08T02:01:21.133Z,96891.91
2023-03-08T02:06:52.054Z,96884.94
2023-03-08T02:12:28.086Z,96881.31
2023-03-08T02:17:54.095Z,96864.06
2023-03-08T02:23:30.083Z,96876.13
2023-03-08T02:28:55.092Z,96885.03
2023-03-08T02:34:20.049Z,96875.41
2023-03-08T02:39:48.104Z,96886.41
2023-03-08T02:45:13.081Z,96882.22
2023-03-08T02:50:38.069Z,96868.16
2023-03-08T02:56:06.099Z,96859.78
2023-03-08T03:01:31.116Z,96862.81
2023-03-08T03:06:57.090Z,96856.97
2023-03-08T03:12:33.092Z,96849.72
2023-03-08T03:18:01.123Z,96854.72
2023-03-08T03:23:25.101Z,96861.59
2023-03-08T03:28:53.088Z,96853.06
2023-03-08T03:34:28.121Z,96850.09
2023-03-08T03:39:54.090Z,96858.56
2023-03-08T03:45:23.087Z,96853.44
2023-03-08T03:50:48.146Z,96861.88
2023-03-08T03:56:19.083Z,96860.34
2023-03-08T04:01:49.097Z,96857.53
2023-03-08T04:07:22.094Z,96864.38
2023-03-08T04:12:55.106Z,96846.31
2023-03-08T04:18:23.097Z,96838.94
2023-03-08T04:23:48.097Z,96850.25
2023-03-08T04:29:14.117Z,96856.09
2023-03-08T04:34:41.159Z,96854.16
2023-03-08T04:40:09.105Z,96866.44
2023-03-08T04:45:41.203Z,96870.28
2023-03-08T04:51:11.274Z,96861.38
2023-03-08T04:56:37.104Z,96860.69
2023-03-08T05:02:03.154Z,96869.31
2023-03-08T05:07:31.110Z,96850.81
2023-03-08T05:12:56.140Z,96839.13
2023-03-08T05:18:21.126Z,96831.31
2023-03-08T05:23:49.140Z,96834.66
2023-03-08T05:29:17.129Z,96832.84
2023-03-08T05:34:42.142Z,96820.47
2023-03-08T05:40:17.150Z,96834.94
2023-03-08T05:45:43.315Z,96837.16
2023-03-08T05:51:08.160Z,96816.50
2023-03-08T05:56:36.113Z,96814.81
2023-03-08T06:02:16.203Z,96810.25
2023-03-08T06:07:44.172Z,96797.25
2023-03-08T06:13:13.167Z,96794.19
2023-03-08T06:18:38.172Z,96789.16
2023-03-08T06:24:05.173Z,96799.19
2023-03-08T06:29:33.172Z,96795.69
2023-03-08T06:34:58.169Z,96797.25
2023-03-08T06:40:27.169Z,96795.16
2023-03-08T06:45:56.190Z,96790.75
2023-03-08T06:51:21.149Z,96798.34
2023-03-08T06:56:45.156Z,96798.22
2023-03-08T07:02:13.187Z,96786.53
2023-03-08T07:07:37.170Z,96776.94
2023-03-08T07:13:26.157Z,96772.66
2023-03-08T07:19:00.198Z,96765.41
2023-03-08T07:24:25.220Z,96761.66
2023-03-08T07:29:49.154Z,96764.88
2023-03-08T07:35:18.171Z,96753.88
2023-03-08T07:40:42.185Z,96734.03
2023-03-08T07:46:11.248Z,96730.81
2023-03-08T07:51:38.156Z,96735.66
2023-03-08T07:57:04.184Z,96715.25
2023-03-08T08:02:30.188Z,96697.91
2023-03-08T08:07:58.207Z,96694.25
2023-03-08T08:13:22.163Z,96687.78
2023-03-08T08:18:53.180Z,96671.41
2023-03-08T08:24:21.192Z,96668.16
2023-03-08T08:29:45.211Z,96647.84
2023-03-08T08:35:10.221Z,96628.81
2023-03-08T08:40:37.202Z,96620.56
2023-03-08T08:46:04.301Z,96613.44
2023-03-08T08:51:30.177Z,96598.03
2023-03-08T08:56:58.180Z,96585.59
2023-03-08T09:02:24.263Z,96571.19
2023-03-08T09:07:49.234Z,96562.91
2023-03-08T09:13:16.270Z,96559.13
2023-03-08T09:18:47.210Z,96555.31
2023-03-08T09:24:16.197Z,96542.50
2023-03-08T09:29:45.212Z,96549.34
2023-03-08T09:35:11.218Z,96553.50
2023-03-08T09:40:39.216Z,96544.84
2023-03-08T09:46:07.290Z,96546.06
2023-03-08T09:51:35.235Z,96540.69
2023-03-08T09:57:03.215Z,96523.56
2023-03-08T10:02:46.309Z,96525.38
2023-03-08T10:08:19.248Z,96509.44
2023-03-08T10:13:47.327Z,96503.16
2023-03-08T10:19:21.224Z,96494.94
2023-03-08T10:24:58.227Z,96475.31
2023-03-08T10:30:27.288Z,96475.88
2023-03-08T10:36:09.341Z,96453.72
2023-03-08T10:41:35.253Z,96439.13
2023-03-08T10:47:04.238Z,96425.53
2023-03-08T10:52:37.244Z,96405.97
2023-03-08T10:58:07.251Z,96399.22
2023-03-08T11:03:34.284Z,96395.47
2023-03-08T11:09:11.262Z,96389.69
2023-03-08T11:14:37.311Z,96384.06
2023-03-08T11:20:17.392Z,96376.75
2023-03-08T11:25:52.266Z,96369.94
2023-03-08T11:31:28.288Z,96355.34
2023-03-08T11:37:00.284Z,96345.66
2023-03-08T11:42:40.265Z,96347.69
2023-03-08T11:48:41.302Z,96343.34
2023-03-08T11:54:15.257Z,96332.91
2023-03-08T11:59:48.284Z,96328.41
2023-03-08T12:05:18.283Z,96326.41
2023-03-08T12:10:52.265Z,96315.47
2023-03-08T12:16:25.368Z,96309.66
2023-03-08T12:21:56.296Z,96308.81
2023-03-08T12:27:24.280Z,96299.19
2023-03-08T12:32:54.539Z,96283.06
2023-03-08T12:38:21.293Z,96282.72
2023-03-08T12:43:47.275Z,96266.09
2023-03-08T12:49:14.314Z,96259.63
2023-03-08T12:54:43.322Z,96258.97
2023-03-08T13:00:16.320Z,96248.13
2023-03-08T13:05:46.287Z,96234.47
2023-03-08T13:11:18.336Z,96225.66
2023-03-08T13:16:51.336Z,96222.34
2023-03-08T13:22:25.340Z,96205.19
2023-03-08T14:13:33.091Z,96170.72
2023-03-08T14:18:58.158Z,96167.75
2023-03-08T14:24:23.096Z,96154.59
2023-03-08T14:29:52.124Z,96165.75
2023-03-08T14:35:30.098Z,96163.94
2023-03-08T14:40:58.108Z,96163.13
2023-03-08T14:46:35.250Z,96149.81
2023-03-08T14:52:00.095Z,96154.47
2023-03-08T14:57:33.106Z,96149.00
2023-03-08T15:03:01.124Z,96137.06
2023-03-08T15:08:28.091Z,96128.28
2023-03-08T15:13:53.104Z,96131.31
2023-03-08T15:19:21.170Z,96128.00
2023-03-08T15:24:46.158Z,96124.84
2023-03-08T15:30:11.144Z,96123.38
2023-03-08T15:35:39.129Z,96134.16
2023-03-08T15:41:05.155Z,96123.06
2023-03-08T15:46:30.188Z,96124.72
2023-03-08T15:51:58.118Z,96131.03
2023-03-08T15:57:23.114Z,96135.50
2023-03-08T16:02:47.192Z,96138.84
2023-03-08T16:08:15.101Z,96134.53
2023-03-08T16:13:46.139Z,96137.31
2023-03-08T16:19:11.142Z,96134.00
2023-03-08T16:24:38.153Z,96130.31
2023-03-08T16:30:05.156Z,96137.28
2023-03-08T16:35:30.188Z,96139.25
2023-03-08T16:41:11.572Z,96140.41
2023-03-08T16:46:38.157Z,96145.06
2023-03-08T16:52:03.151Z,96136.59
2023-03-08T16:57:31.133Z,96140.56
2023-03-08T17:02:56.233Z,96137.25
2023-03-08T17:08:20.157Z,96154.16
2023-03-08T17:13:54.167Z,96159.78
2023-03-08T17:19:22.150Z,96164.09
2023-03-08T17:24:46.135Z,96159.09
2023-03-08T17:30:14.174Z,96167.25
2023-03-08T17:35:38.252Z,96175.19
2023-03-08T17:41:03.172Z,96184.81
2023-03-08T17:46:33.205Z,96188.28
2023-03-08T17:52:00.152Z,96193.44
2023-03-08T17:57:25.168Z,96188.13
2023-03-08T18:02:53.181Z,96188.00
2023-03-08T18:08:17.172Z,96191.47
2023-03-08T18:13:48.247Z,96186.31
2023-03-08T18:19:16.202Z,96169.72
2023-03-08T18:24:42.191Z,96179.34
2023-03-08T18:30:07.200Z,96194.28
2023-03-08T18:35:34.243Z,96190.47
2023-03-08T18:40:59.185Z,96200.78
2023-03-08T18:46:24.283Z,96193.81
2023-03-08T18:51:53.218Z,96186.66
2023-03-08T18:57:17.186Z,96181.69
2023-03-08T19:02:42.190Z,96178.88
2023-03-08T19:08:10.223Z,96178.06
2023-03-08T19:13:41.242Z,96181.00
2023-03-08T19:19:08.258Z,96188.13
2023-03-08T19:24:36.235Z,96186.47
2023-03-08T19:30:01.188Z,96194.28
2023-03-08T19:35:27.196Z,96187.31
2023-03-08T19:40:55.196Z,96188.28
2023-03-08T19:46:24.243Z,96196.94
2023-03-08T19:51:50.268Z,96202.25
2023-03-08T19:57:17.244Z,96206.56
2023-03-08T20:02:42.225Z,96198.44
2023-03-08T20:08:06.233Z,96199.94
2023-03-08T20:13:34.235Z,96213.06
2023-03-08T20:18:58.305Z,96203.63
2023-03-08T20:24:25.270Z,96196.66
2023-03-08T20:29:52.264Z,96191.66
2023-03-08T20:35:23.894Z,96190.63
2023-03-08T20:40:48.223Z,96190.13
2023-03-08T20:46:18.268Z,96196.56
2023-03-08T20:51:43.241Z,96179.16
2023-03-08T20:57:08.271Z,96188.59
2023-03-08T21:02:35.326Z,96176.63
2023-03-08T21:08:00.225Z,96185.56
2023-03-08T21:13:24.229Z,96181.91
2023-03-08T21:18:53.270Z,96185.41
2023-03-08T21:24:21.254Z,96179.94
2023-03-08T21:29:46.249Z,96181.63
2023-03-08T21:35:13.281Z,96179.63
2023-03-08T21:40:38.251Z,96171.50
2023-03-08T21:46:02.444Z,96176.50
2023-03-08T21:51:30.245Z,96163.25
2023-03-08T21:56:54.261Z,96131.56
2023-03-08T22:02:19.273Z,96147.50
2023-03-08T22:07:46.291Z,96131.56
2023-03-08T22:13:11.282Z,96130.59
2023-03-08T22:18:35.283Z,96138.53
2023-03-08T22:24:04.273Z,96147.81
2023-03-08T22:29:28.303Z,96130.91
2023-03-08T22:34:53.292Z,96125.91
2023-03-08T22:40:25.297Z,96134.56
2023-03-08T22:45:50.316Z,96119.47
2023-03-08T22:51:15.308Z,96125.59
2023-03-08T22:56:43.337Z,96128.09
2023-03-08T23:02:08.286Z,96112.34
2023-03-08T23:07:33.303Z,96112.16
2023-03-08T23:13:00.298Z,96097.91
2023-03-08T23:18:26.315Z,96094.44
2023-03-08T23:23:51.302Z,96076.19
2023-03-08T23:29:25.312Z,96076.84
2023-03-08T23:34:50.304Z,96064.25
2023-03-08T23:40:17.319Z,96068.41
2023-03-08T23:45:47.356Z,96053.28
2023-03-08T23:51:11.798Z,96042.19
2023-03-08T23:56:44.306Z,96041.38
